createdAt,value
2023-04-13T00:00:32.386Z,1.10
2023-04-13T00:03:02.361Z,1.07
2023-04-13T00:05:31.183Z,1.00
2023-04-13T00:08:03.031Z,1.10
2023-04-13T00:10:31.650Z,1.00
2023-04-13T00:13:01.512Z,0.90
2023-04-13T00:15:31.208Z,0.90
2023-04-13T00:17:59.688Z,0.87
2023-04-13T00:20:27.946Z,1.00
2023-04-13T00:22:56.256Z,0.97
2023-04-13T00:25:24.711Z,0.90
2023-04-13T00:27:53.959Z,1.23
2023-04-13T00:30:22.947Z,1.67
2023-04-13T00:32:52.814Z,1.03
2023-04-13T00:35:25.069Z,0.87
2023-04-13T00:37:53.714Z,1.00
2023-04-13T00:40:21.908Z,1.00
2023-04-13T00:42:51.779Z,1.07
2023-04-13T00:45:20.904Z,1.20
2023-04-13T00:47:51.860Z,0.90
2023-04-13T00:50:22.113Z,1.37
2023-04-13T00:52:50.711Z,0.90
2023-04-13T00:55:21.999Z,1.30
2023-04-13T00:57:52.963Z,1.00
2023-04-13T01:00:21.788Z,0.83
2023-04-13T01:02:50.634Z,1.00
2023-04-13T01:05:19.695Z,1.07
2023-04-13T01:08:05.661Z,1.30
2023-04-13T01:10:40.605Z,1.03
2023-04-13T01:13:17.373Z,0.90
2023-04-13T01:15:58.167Z,1.17
2023-04-13T01:18:28.433Z,1.00
2023-04-13T01:20:57.449Z,0.77
2023-04-13T01:23:36.859Z,1.20
2023-04-13T01:26:08.980Z,1.10
2023-04-13T01:28:40.641Z,1.37
2023-04-13T01:31:11.923Z,1.17
2023-04-13T01:33:41.535Z,1.07
2023-04-13T01:36:12.575Z,1.20
2023-04-13T01:38:40.907Z,1.13
2023-04-13T01:41:15.812Z,1.23
2023-04-13T01:43:47.960Z,1.10
2023-04-13T01:46:20.456Z,1.30
2023-04-13T01:49:03.993Z,0.80
2023-04-13T01:51:42.790Z,1.00
2023-04-13T01:54:15.634Z,1.03
2023-04-13T01:56:46.928Z,0.90
2023-04-13T01:59:17.307Z,1.40
2023-04-13T02:01:46.010Z,1.10
2023-04-13T02:04:18.750Z,1.50
2023-04-13T02:06:48.292Z,1.10
2023-04-13T02:09:17.102Z,1.27
2023-04-13T02:11:45.232Z,0.90
2023-04-13T02:14:13.509Z,1.40
2023-04-13T02:16:43.819Z,1.17
2023-04-13T02:19:15.127Z,0.87
2023-04-13T02:21:43.265Z,1.30
2023-04-13T02:24:12.816Z,0.73
2023-04-13T02:26:41.520Z,0.90
2023-04-13T02:29:10.064Z,1.13
2023-04-13T02:31:43.480Z,1.00
2023-04-13T02:34:13.088Z,1.10
2023-04-13T02:36:43.080Z,1.07
2023-04-13T02:39:11.268Z,0.90
2023-04-13T02:41:43.357Z,2.10
2023-04-13T02:44:15.989Z,1.40
2023-04-13T02:46:51.344Z,1.00
2023-04-13T02:49:21.178Z,0.90
2023-04-13T02:51:57.485Z,1.00
2023-04-13T02:54:38.902Z,1.60
2023-04-13T02:57:06.985Z,0.77
2023-04-13T02:59:39.719Z,1.10
2023-04-13T03:02:10.156Z,1.40
2023-04-13T03:04:40.557Z,1.20
2023-04-13T03:07:10.110Z,1.10
2023-04-13T03:09:44.770Z,2.30
2023-04-13T03:12:13.138Z,1.40
2023-04-13T03:14:43.996Z,1.47
2023-04-13T03:17:12.975Z,1.17
2023-04-13T03:19:46.605Z,1.47
2023-04-13T03:22:15.997Z,1.07
2023-04-13T03:24:47.349Z,1.80
2023-04-13T03:27:23.793Z,1.37
2023-04-13T03:29:54.843Z,1.13
2023-04-13T03:32:24.164Z,1.20
2023-04-13T03:35:00.422Z,1.20
2023-04-13T03:37:32.524Z,1.40
2023-04-13T03:40:11.210Z,1.57
2023-04-13T03:42:47.723Z,1.20
2023-04-13T03:45:16.218Z,1.30
2023-04-13T03:47:44.911Z,1.83
2023-04-13T03:50:14.907Z,1.30
2023-04-13T03:52:43.116Z,1.57
2023-04-13T03:55:11.902Z,1.33
2023-04-13T03:57:41.441Z,1.33
2023-04-13T04:00:15.835Z,1.40
2023-04-13T04:02:59.293Z,1.13
2023-04-13T04:05:37.308Z,0.90
2023-04-13T04:08:06.787Z,1.20
2023-04-13T04:10:35.109Z,1.10
2023-04-13T04:13:03.942Z,1.17
2023-04-13T04:15:35.611Z,1.20
2023-04-13T04:18:07.556Z,1.53
2023-04-13T04:20:40.595Z,1.27
2023-04-13T04:23:11.306Z,1.10
2023-04-13T04:25:48.602Z,1.17
2023-04-13T04:28:18.128Z,2.17
2023-04-13T04:30:54.323Z,1.33
2023-04-13T04:33:23.755Z,1.20
2023-04-13T04:35:54.455Z,1.57
2023-04-13T04:38:30.447Z,1.37
2023-04-13T04:41:02.250Z,1.47
2023-04-13T04:43:30.762Z,1.20
2023-04-13T04:46:03.233Z,1.37
2023-04-13T04:48:32.820Z,2.50
2023-04-13T04:51:02.320Z,1.10
2023-04-13T04:53:35.165Z,1.43
2023-04-13T04:56:07.489Z,1.50
2023-04-13T04:58:43.890Z,1.47
2023-04-13T05:01:12.814Z,1.30
2023-04-13T05:03:42.179Z,1.43
2023-04-13T05:06:27.198Z,1.40
2023-04-13T05:08:56.963Z,1.50
2023-04-13T05:11:25.901Z,2.37
2023-04-13T05:13:59.706Z,1.07
2023-04-13T05:16:30.576Z,1.50
2023-04-13T05:19:07.876Z,1.77
2023-04-13T05:21:50.252Z,2.00
2023-04-13T05:24:19.034Z,2.10
2023-04-13T05:26:47.962Z,2.90
2023-04-13T05:29:22.422Z,2.50
2023-04-13T05:31:51.324Z,1.70
2023-04-13T05:34:20.166Z,1.17
2023-04-13T05:37:08.626Z,2.27
2023-04-13T05:39:36.789Z,1.67
2023-04-13T05:42:05.537Z,1.73
2023-04-13T05:44:38.721Z,1.40
2023-04-13T05:47:07.384Z,1.50
2023-04-13T05:49:36.950Z,2.00
2023-04-13T05:52:07.622Z,1.63
2023-04-13T05:54:42.786Z,1.47
2023-04-13T05:57:10.936Z,1.43
2023-04-13T05:59:44.558Z,2.17
2023-04-13T06:02:14.267Z,1.70
2023-04-13T06:04:43.363Z,1.77
2023-04-13T06:07:16.375Z,1.60
2023-04-13T06:09:44.530Z,1.73
2023-04-13T06:12:12.597Z,1.30
2023-04-13T06:14:42.836Z,2.27
2023-04-13T06:17:11.062Z,1.43
2023-04-13T06:19:39.353Z,1.63
2023-04-13T06:22:07.483Z,1.90
2023-04-13T06:24:40.402Z,1.90
2023-04-13T06:27:11.223Z,2.13
2023-04-13T06:29:41.640Z,1.70
2023-04-13T06:32:12.220Z,1.67
2023-04-13T06:34:41.157Z,2.37
2023-04-13T06:37:09.793Z,1.70
2023-04-13T06:39:49.685Z,1.57
2023-04-13T06:42:19.763Z,2.70
2023-04-13T06:45:00.154Z,1.93
2023-04-13T06:47:33.498Z,2.00
2023-04-13T06:50:05.145Z,2.50
2023-04-13T06:52:34.050Z,1.80
2023-04-13T06:55:04.140Z,2.70
2023-04-13T06:57:37.260Z,2.00
2023-04-13T07:00:21.835Z,2.30
2023-04-13T07:02:54.916Z,1.40
2023-04-13T07:05:24.069Z,3.23
2023-04-13T07:07:54.581Z,2.00
2023-04-13T07:10:26.039Z,1.80
2023-04-13T07:12:56.356Z,1.60
2023-04-13T07:15:28.767Z,2.33
2023-04-13T07:17:57.038Z,2.70
2023-04-13T07:20:25.399Z,2.23
2023-04-13T07:22:53.824Z,2.10
2023-04-13T07:25:22.120Z,2.13
2023-04-13T07:27:54.279Z,2.37
2023-04-13T07:30:23.710Z,2.27
2023-04-13T07:32:52.219Z,1.70
2023-04-13T07:35:22.066Z,2.30
2023-04-13T07:37:53.083Z,2.90
2023-04-13T07:40:22.819Z,1.97
2023-04-13T07:42:56.339Z,1.83
2023-04-13T07:45:25.399Z,2.23
2023-04-13T07:47:54.717Z,1.90
2023-04-13T07:50:23.095Z,2.40
2023-04-13T07:52:52.824Z,2.20
2023-04-13T07:55:23.703Z,2.13
2023-04-13T07:57:53.432Z,2.27
2023-04-13T08:00:23.516Z,2.47
2023-04-13T08:02:57.515Z,2.60
2023-04-13T08:05:27.854Z,2.10
2023-04-13T08:07:56.515Z,1.70
2023-04-13T08:10:25.951Z,2.20
2023-04-13T08:12:56.473Z,1.87
2023-04-13T08:15:26.313Z,1.93
2023-04-13T08:17:55.416Z,3.10
2023-04-13T08:20:24.870Z,3.10
2023-04-13T08:22:55.351Z,2.20
2023-04-13T08:25:23.993Z,2.60
2023-04-13T08:27:52.345Z,1.90
2023-04-13T08:30:20.737Z,2.43
2023-04-13T08:32:59.390Z,2.37
2023-04-13T08:35:28.367Z,2.40
2023-04-13T08:38:00.292Z,2.00
2023-04-13T08:40:28.552Z,2.73
2023-04-13T08:42:58.189Z,2.47
2023-04-13T08:45:28.054Z,1.50
2023-04-13T08:47:56.744Z,2.50
2023-04-13T08:50:27.853Z,1.90
2023-04-13T08:52:57.632Z,1.73
2023-04-13T08:55:27.461Z,2.60
2023-04-13T08:57:59.422Z,2.47
2023-04-13T09:00:28.359Z,2.70
2023-04-13T09:03:05.670Z,2.10
2023-04-13T09:05:43.027Z,2.00
2023-04-13T09:08:14.228Z,2.60
2023-04-13T09:10:46.022Z,2.10
2023-04-13T09:13:14.145Z,2.67
2023-04-13T09:15:49.900Z,5.03
2023-04-13T09:18:25.464Z,3.47
2023-04-13T09:21:02.121Z,2.87
2023-04-13T09:23:30.303Z,3.00
2023-04-13T09:26:09.454Z,2.50
2023-04-13T09:28:47.857Z,2.30
2023-04-13T09:31:16.908Z,1.87
2023-04-13T09:33:46.822Z,2.10
2023-04-13T09:36:18.808Z,1.93
2023-04-13T09:38:52.424Z,1.80
2023-04-13T09:41:30.103Z,2.57
2023-04-13T09:43:58.710Z,2.00
2023-04-13T09:46:27.048Z,2.87
2023-04-13T09:49:03.505Z,1.77
2023-04-13T09:51:41.959Z,2.97
2023-04-13T09:54:11.789Z,2.30
2023-04-13T09:56:47.206Z,2.00
2023-04-13T09:59:15.913Z,2.23
2023-04-13T10:01:45.259Z,2.33
2023-04-13T10:04:13.735Z,2.60
2023-04-13T10:06:44.928Z,2.10
2023-04-13T10:09:13.321Z,2.73
2023-04-13T10:11:46.707Z,2.03
2023-04-13T10:14:19.807Z,1.93
2023-04-13T10:17:10.519Z,2.20
2023-04-13T10:19:43.262Z,1.60
2023-04-13T10:22:13.849Z,1.67
2023-04-13T10:24:42.254Z,2.20
2023-04-13T10:27:16.371Z,1.40
2023-04-13T10:29:44.583Z,1.80
2023-04-13T10:32:22.260Z,2.00
2023-04-13T10:34:50.514Z,1.80
2023-04-13T10:37:21.869Z,1.67
2023-04-13T10:39:51.799Z,2.20
2023-04-13T10:42:19.906Z,1.90
2023-04-13T10:44:49.048Z,1.47
2023-04-13T10:47:18.588Z,1.10
2023-04-13T10:49:47.735Z,1.50
2023-04-13T10:52:16.347Z,1.97
2023-04-13T10:54:45.990Z,2.20
2023-04-13T10:57:14.924Z,2.20
2023-04-13T11:02:17.601Z,1.80
2023-04-13T11:04:48.168Z,1.77
2023-04-13T11:07:18.157Z,1.90
2023-04-13T11:09:50.561Z,1.73
2023-04-13T11:12:19.484Z,2.27
2023-04-13T11:14:48.251Z,2.07
2023-04-13T11:17:18.941Z,1.10
2023-04-13T11:19:49.769Z,2.03
2023-04-13T11:22:19.233Z,1.40
2023-04-13T11:24:49.966Z,1.80
2023-04-13T11:27:19.265Z,1.50
2023-04-13T11:29:48.051Z,1.40
2023-04-13T11:32:19.616Z,1.50
2023-04-13T11:34:49.452Z,1.07
2023-04-13T11:37:18.132Z,1.67
2023-04-13T11:39:47.884Z,1.40
2023-04-13T11:42:15.965Z,1.27
2023-04-13T11:44:46.447Z,1.63
2023-04-13T11:47:18.452Z,1.60
2023-04-13T11:49:48.112Z,1.57
2023-04-13T11:52:17.340Z,1.30
2023-04-13T11:54:46.180Z,1.70
2023-04-13T11:57:18.111Z,1.27
2023-04-13T11:59:47.670Z,1.53
2023-04-13T12:02:22.083Z,0.80
2023-04-13T12:04:51.821Z,1.77
2023-04-13T12:07:20.979Z,1.03
2023-04-13T12:15:12.715Z,2.00
2023-04-13T12:17:49.617Z,1.20
2023-04-13T12:20:20.252Z,1.73
2023-04-13T12:22:57.734Z,1.10
2023-04-13T12:25:35.976Z,1.27
2023-04-13T12:28:06.248Z,1.27
2023-04-13T12:30:35.132Z,1.30
2023-04-13T12:33:03.466Z,1.47
2023-04-13T12:35:31.628Z,1.40
2023-04-13T12:38:00.330Z,1.50
2023-04-13T12:40:29.045Z,3.60
2023-04-13T12:42:57.381Z,1.53
2023-04-13T12:45:28.534Z,1.73
2023-04-13T12:47:57.050Z,1.50
2023-04-13T12:50:25.556Z,2.43
2023-04-13T12:52:53.648Z,2.03
2023-04-13T12:55:21.786Z,1.87
2023-04-13T12:57:50.149Z,1.83
2023-04-13T13:00:19.865Z,2.40
2023-04-13T13:02:54.277Z,1.80
2023-04-13T13:05:30.892Z,1.67
2023-04-13T13:07:59.020Z,2.40
2023-04-13T13:10:30.076Z,1.90
2023-04-13T13:12:58.665Z,1.80
2023-04-13T13:15:26.916Z,1.97
2023-04-13T13:17:56.561Z,2.30
2023-04-13T13:20:24.715Z,1.70
2023-04-13T13:22:53.045Z,2.37
2023-04-13T13:25:21.163Z,2.10
2023-04-13T13:30:20.236Z,1.90
2023-04-13T13:32:49.553Z,2.33
2023-04-13T13:35:19.464Z,2.50
2023-04-13T13:37:47.630Z,2.07
2023-04-13T13:40:15.928Z,1.73
2023-04-13T13:42:51.988Z,1.93
2023-04-13T13:45:20.991Z,2.70
2023-04-13T13:47:53.514Z,2.63
2023-04-13T13:50:29.703Z,2.03
2023-04-13T13:53:03.157Z,1.90
2023-04-13T13:55:36.488Z,2.17
2023-04-13T13:58:04.614Z,2.10
2023-04-13T14:00:33.029Z,2.67
2023-04-13T14:03:01.704Z,2.40
2023-04-13T14:05:32.312Z,1.83
2023-04-13T14:08:00.843Z,3.13
2023-04-13T14:10:29.031Z,1.97
2023-04-13T14:12:58.304Z,3.20
2023-04-13T14:15:26.713Z,1.33
2023-04-13T14:18:09.294Z,2.80
2023-04-13T14:20:40.701Z,1.80
2023-04-13T14:23:09.879Z,1.90
2023-04-13T14:25:40.081Z,2.20
2023-04-13T14:28:09.110Z,1.93
2023-04-13T14:30:37.789Z,1.10
2023-04-13T14:33:07.424Z,1.70
2023-04-13T14:35:35.653Z,1.70
2023-04-13T14:38:05.472Z,1.80
2023-04-13T14:40:33.615Z,1.60
2023-04-13T14:43:01.722Z,1.50
2023-04-13T14:45:29.989Z,1.50
2023-04-13T14:47:58.194Z,1.73
2023-04-13T14:50:26.423Z,1.73
2023-04-13T14:52:54.546Z,2.87
2023-04-13T14:55:24.478Z,2.40
2023-04-13T14:57:53.594Z,1.47
2023-04-13T15:00:26.329Z,1.90
2023-04-13T15:02:54.920Z,1.90
2023-04-13T15:05:23.624Z,1.60
2023-04-13T15:07:51.924Z,2.30
2023-04-13T15:10:21.306Z,1.80
2023-04-13T15:12:50.994Z,1.40
2023-04-13T15:15:19.342Z,1.47
2023-04-13T15:17:47.613Z,2.10
2023-04-13T15:20:15.813Z,1.70
2023-04-13T15:22:43.948Z,2.57
2023-04-13T15:25:12.392Z,2.00
2023-04-13T15:27:41.356Z,2.50
2023-04-13T15:30:11.986Z,1.97
2023-04-13T15:32:41.171Z,2.13
2023-04-13T15:35:10.088Z,2.37
2023-04-13T15:37:38.187Z,2.07
2023-04-13T15:40:07.851Z,2.20
2023-04-13T15:42:36.144Z,1.80
2023-04-13T15:45:05.380Z,1.83
2023-04-13T15:47:35.068Z,1.87
2023-04-13T15:50:04.251Z,2.57
2023-04-13T15:52:33.332Z,1.80
2023-04-13T15:55:01.632Z,1.73
2023-04-13T15:57:29.857Z,1.70
2023-04-13T15:59:57.988Z,1.50
2023-04-13T16:02:26.342Z,1.57
2023-04-13T16:04:56.800Z,2.10
2023-04-13T16:07:24.973Z,2.20
2023-04-13T16:09:56.361Z,1.60
2023-04-13T16:12:26.433Z,1.80
2023-04-13T16:14:56.121Z,2.40
2023-04-13T16:17:31.121Z,3.80
2023-04-13T16:20:18.252Z,2.70
2023-04-13T16:22:49.159Z,2.13
2023-04-13T16:25:19.164Z,1.90
2023-04-13T16:27:48.946Z,1.03
2023-04-13T16:30:20.748Z,1.73
2023-04-13T16:32:50.708Z,2.90
2023-04-13T16:35:20.643Z,2.00
2023-04-13T16:37:48.732Z,3.40
2023-04-13T16:40:16.990Z,2.00
2023-04-13T16:42:46.148Z,2.40
2023-04-13T16:45:15.243Z,2.30
2023-04-13T16:47:44.191Z,2.10
2023-04-13T16:50:13.473Z,1.63
2023-04-13T16:52:43.353Z,2.07
2023-04-13T16:55:15.034Z,2.37
2023-04-13T16:57:43.836Z,2.20
2023-04-13T17:00:13.017Z,1.67
2023-04-13T17:02:42.425Z,1.90
2023-04-13T17:05:12.453Z,2.40
2023-04-13T17:07:44.037Z,2.30
2023-04-13T17:10:13.745Z,3.70
2023-04-13T17:12:42.369Z,2.80
2023-04-13T17:15:11.315Z,2.73
2023-04-13T17:17:39.493Z,2.37
2023-04-13T17:20:09.438Z,2.47
2023-04-13T17:22:37.951Z,3.40
2023-04-13T17:25:08.713Z,2.13
2023-04-13T17:27:37.201Z,2.17
2023-04-13T17:30:06.669Z,2.50
2023-04-13T17:32:35.020Z,2.40
2023-04-13T17:35:03.403Z,2.20
2023-04-13T17:37:31.578Z,2.03
2023-04-13T17:40:00.535Z,2.20
2023-04-13T17:42:30.048Z,2.20
2023-04-13T17:44:58.269Z,3.70
2023-04-13T17:47:26.467Z,3.20
2023-04-13T17:49:54.969Z,3.07
2023-04-13T17:52:23.075Z,2.80
2023-04-13T17:54:51.566Z,2.60
2023-04-13T17:57:19.699Z,2.40
2023-04-13T17:59:49.355Z,4.17
2023-04-13T18:02:17.507Z,3.60
2023-04-13T18:04:46.522Z,3.30
2023-04-13T18:07:14.795Z,4.00
2023-04-13T18:09:42.874Z,3.77
2023-04-13T18:12:12.067Z,4.70
2023-04-13T18:14:40.405Z,3.83
2023-04-13T18:17:09.884Z,3.73
2023-04-13T18:19:38.233Z,4.60
2023-04-13T18:22:06.383Z,4.70
2023-04-13T18:24:34.473Z,5.10
2023-04-13T18:27:02.616Z,5.63
2023-04-13T18:29:30.748Z,3.97
2023-04-13T18:31:58.965Z,4.57
2023-04-13T18:34:30.146Z,5.40
2023-04-13T18:36:58.291Z,7.13
2023-04-13T18:39:27.029Z,7.37
2023-04-13T18:41:55.217Z,5.30
2023-04-13T18:44:23.358Z,4.10
2023-04-13T18:46:51.560Z,3.33
2023-04-13T18:49:19.685Z,3.60
2023-04-13T18:51:49.254Z,4.70
2023-04-13T18:54:17.505Z,4.20
2023-04-13T18:56:47.749Z,4.40
2023-04-13T18:59:15.860Z,3.40
2023-04-13T19:01:44.005Z,4.17
2023-04-13T19:04:12.217Z,3.50
2023-04-13T19:06:40.347Z,4.23
2023-04-13T19:09:09.825Z,4.00
2023-04-13T19:11:49.149Z,4.77
2023-04-13T19:14:17.264Z,5.80
2023-04-13T19:16:47.179Z,4.43
2023-04-13T19:19:16.101Z,4.90
2023-04-13T19:21:44.227Z,4.83
2023-04-13T19:24:14.110Z,5.70
2023-04-13T19:26:42.266Z,8.67
2023-04-13T19:29:12.656Z,6.43
2023-04-13T19:31:44.038Z,6.83
2023-04-13T19:34:13.142Z,7.70
2023-04-13T19:36:42.091Z,6.40
2023-04-13T19:39:10.881Z,5.63
2023-04-13T19:41:42.417Z,4.47
2023-04-13T19:44:10.471Z,4.00
2023-04-13T19:46:38.741Z,3.90
2023-04-13T19:49:07.884Z,5.10
2023-04-13T19:51:36.121Z,5.20
2023-04-13T19:54:05.121Z,5.17
2023-04-13T19:56:35.422Z,6.40
2023-04-13T19:59:06.388Z,5.97
2023-04-13T20:01:34.844Z,6.73
2023-04-13T20:04:05.254Z,5.60
2023-04-13T20:06:35.058Z,6.00
2023-04-13T20:09:10.924Z,6.20
2023-04-13T20:11:39.085Z,6.40
2023-04-13T20:14:09.295Z,5.30
2023-04-13T20:16:37.731Z,4.57
2023-04-13T20:19:06.728Z,4.20
2023-04-13T20:21:35.482Z,3.33
2023-04-13T20:24:04.462Z,2.90
2023-04-13T20:26:33.058Z,3.77
2023-04-13T20:29:03.090Z,3.20
2023-04-13T20:31:34.634Z,3.23
2023-04-13T20:34:04.107Z,3.37
2023-04-13T20:36:32.671Z,3.57
2023-04-13T20:39:01.134Z,2.87
2023-04-13T20:41:32.255Z,2.87
2023-04-13T20:44:01.405Z,3.30
2023-04-13T20:46:34.715Z,2.73
2023-04-13T20:49:05.707Z,3.10
2023-04-13T20:51:34.341Z,4.10
2023-04-13T20:54:05.521Z,3.77
2023-04-13T20:56:34.107Z,4.63
2023-04-13T20:59:03.150Z,3.83
2023-04-13T21:01:31.836Z,3.30
2023-04-13T21:04:00.212Z,3.17
2023-04-13T21:06:30.165Z,6.77
2023-04-13T21:08:59.364Z,11.57
2023-04-13T21:11:27.612Z,13.70
2023-04-13T21:13:56.051Z,10.33
2023-04-13T21:16:25.785Z,7.20
2023-04-13T21:18:54.145Z,4.30
2023-04-13T21:21:24.930Z,3.10
2023-04-13T21:23:55.394Z,3.20
2023-04-13T21:26:23.608Z,3.03
2023-04-13T21:28:51.670Z,3.30
2023-04-13T21:31:20.037Z,2.80
2023-04-13T21:33:48.194Z,2.67
2023-04-13T21:38:47.255Z,4.50
2023-04-13T21:41:17.691Z,4.10
2023-04-13T21:43:46.465Z,5.10
2023-04-13T21:46:15.899Z,4.27
2023-04-13T21:48:44.487Z,3.73
2023-04-13T21:51:12.782Z,4.33
2023-04-13T21:53:41.104Z,3.40
2023-04-13T21:56:09.466Z,3.20
2023-04-13T21:58:43.284Z,2.30
2023-04-13T22:01:12.840Z,2.87
2023-04-13T22:03:43.908Z,2.67
2023-04-13T22:06:12.731Z,2.80
2023-04-13T22:08:41.957Z,2.40
2023-04-13T22:11:10.901Z,2.23
2023-04-13T22:13:38.958Z,2.40
2023-04-13T22:16:09.470Z,1.97
2023-04-13T22:18:37.964Z,2.50
2023-04-13T22:21:07.147Z,3.10
2023-04-13T22:23:35.377Z,3.13
2023-04-13T22:26:04.030Z,2.40
2023-04-13T22:28:33.608Z,2.50
2023-04-13T22:31:08.968Z,2.17
2023-04-13T22:33:38.037Z,2.33
2023-04-13T22:36:08.040Z,2.80
2023-04-13T22:38:36.921Z,2.50
2023-04-13T22:41:07.856Z,2.50
2023-04-13T22:43:36.090Z,2.13
2023-04-13T22:46:04.250Z,2.67
2023-04-13T22:48:33.848Z,3.70
2023-04-13T22:51:03.469Z,2.50
2023-04-13T22:53:31.800Z,2.93
2023-04-13T22:56:00.624Z,2.73
2023-04-13T22:58:29.389Z,3.77
2023-04-13T23:00:57.511Z,2.40
2023-04-13T23:03:25.719Z,2.50
2023-04-13T23:05:55.336Z,3.13
2023-04-13T23:08:23.390Z,2.23
2023-04-13T23:10:51.688Z,2.53
2023-04-13T23:13:19.725Z,2.37
2023-04-13T23:15:47.880Z,3.30
2023-04-13T23:18:16.232Z,2.00
2023-04-13T23:20:44.370Z,2.50
2023-04-13T23:23:13.873Z,2.70
2023-04-13T23:25:42.041Z,2.47
2023-04-13T23:28:10.418Z,2.10
2023-04-13T23:30:38.540Z,2.17
2023-04-13T23:33:06.659Z,3.27
2023-04-13T23:35:35.133Z,2.90
2023-04-13T23:38:03.689Z,3.70
2023-04-13T23:40:33.258Z,3.87
2023-04-13T23:43:01.546Z,3.50
2023-04-13T23:45:29.711Z,3.27
2023-04-13T23:47:58.060Z,2.57
2023-04-13T23:50:26.562Z,3.40
2023-04-13T23:52:54.843Z,3.30
2023-04-13T23:55:23.010Z,3.00
2023-04-13T23:57:52.526Z,3.23
